PWSweather.com
Personal Weather Stations
Station Observations
KKYCRABO2
Cedar Creek Lake 840 Ky. Hwy. 39 N, Crab Orchard, KY 40419

Cedar Creek Lake 840 Ky. Hwy. 39 NCrab Orchard, KY 40419

Lat: 37.4736234544238, Lon: -84.5120286941528

Elevation: 952

Station Type: TYCON Power TP1080WC Pro

http://kbweather.net/

High Low Average
Temperature 67.8°F19.9°F 50.7°F10.4°F 57.5°F14.2°F
Dew Point 55.4°F13.0°F 48.2°F9.0°F 51.6°F10.9°F
Winds 3.8 mph WSW6.1 mph WSW Calm Calm 0.3 mph 0.5 mph
Wind Gusts 5.8 mph9.3 mph -- 1.1 mph1.8 mph
Humidity 94% 53% 81%
Pressure 30.12 in1020.00 in 29.97 in1014.90 in -
Precipitation 2.48 in63.00 in - -
Hour Temp Dew Point Humidity Winds Wind Gusts Pressure Precip Precip Rate Daily Precip Total
12:00 AM 54.9°F12.7°C 53.6°F12.0°C 93% Calm Calm 1.3 mph2.1 kmh 30.00 in1015.9 mb 0.00 in0.0 mm 0.00 in0.0 mm 0.00 in0.0 mm
12:05 AM 54.7°F12.6°C 53.6°F12.0°C 93% Calm Calm -- 30.00 in1015.9 mb 0.00 in0.0 mm 0.00 in0.0 mm 0.00 in0.0 mm
12:10 AM 54.3°F12.4°C 51.8°F11.0°C 92% Calm Calm -- 30.00 in1015.9 mb 0.00 in0.0 mm 0.00 in0.0 mm 0.00 in0.0 mm
12:15 AM 54.3°F12.4°C 51.8°F11.0°C 92% Calm Calm -- 30.00 in1015.9 mb 0.00 in0.0 mm 0.00 in0.0 mm 0.00 in0.0 mm
12:20 AM 54.3°F12.4°C 51.8°F11.0°C 92% Calm Calm -- 30.00 in1015.9 mb 0.00 in0.0 mm 0.00 in0.0 mm 0.00 in0.0 mm
12:25 AM 54.1°F12.3°C 51.8°F11.0°C 92% Calm Calm -- 30.00 in1015.9 mb 0.00 in0.0 mm 0.00 in0.0 mm 0.00 in0.0 mm
12:30 AM 54.5°F12.5°C 53.6°F12.0°C 93% Calm Calm -- 30.00 in1015.9 mb 0.00 in0.0 mm 0.00 in0.0 mm 0.00 in0.0 mm
12:35 AM 54.5°F12.5°C 53.6°F12.0°C 93% Calm Calm -- 30.00 in1015.9 mb 0.00 in0.0 mm 0.00 in0.0 mm 0.00 in0.0 mm
12:40 AM 54.5°F12.5°C 53.6°F12.0°C 93% Calm Calm -- 30.00 in1015.9 mb 0.00 in0.0 mm 0.00 in0.0 mm 0.00 in0.0 mm
12:45 AM 54.5°F12.5°C 53.6°F12.0°C 93% Calm Calm -- 30.00 in1015.9 mb 0.00 in0.0 mm 0.00 in0.0 mm 0.00 in0.0 mm
12:50 AM 54.3°F12.4°C 53.6°F12.0°C 93% Calm Calm -- 30.00 in1015.9 mb 0.00 in0.0 mm 0.00 in0.0 mm 0.00 in0.0 mm
12:55 AM 54.3°F12.4°C 53.6°F12.0°C 93% Calm Calm -- 30.00 in1015.9 mb 0.00 in0.0 mm 0.00 in0.0 mm 0.00 in0.0 mm
01:00 AM 54.1°F12.3°C 53.6°F12.0°C 93% Calm Calm -- 30.00 in1015.9 mb 0.00 in0.0 mm 0.00 in0.0 mm 0.00 in0.0 mm
01:05 AM 54.1°F12.3°C 53.6°F12.0°C 93% Calm Calm -- 30.00 in1015.9 mb 0.00 in0.0 mm 0.00 in0.0 mm 0.00 in0.0 mm
01:10 AM 54.0°F12.2°C 51.8°F11.0°C 93% Calm Calm -- 30.00 in1015.9 mb 0.00 in0.0 mm 0.00 in0.0 mm 0.00 in0.0 mm
01:15 AM 53.8°F12.1°C 51.8°F11.0°C 93% Calm Calm -- 30.00 in1015.9 mb 0.00 in0.0 mm 0.00 in0.0 mm 0.00 in0.0 mm
01:20 AM 53.4°F11.9°C 51.8°F11.0°C 92% Calm Calm -- 30.00 in1015.9 mb 0.00 in0.0 mm 0.00 in0.0 mm 0.00 in0.0 mm
01:25 AM 53.2°F11.8°C 50.0°F10.0°C 92% Calm Calm -- 30.00 in1015.9 mb 0.00 in0.0 mm 0.00 in0.0 mm 0.00 in0.0 mm
01:30 AM 53.1°F11.7°C 50.0°F10.0°C 92% Calm Calm -- 30.00 in1015.9 mb 0.00 in0.0 mm 0.00 in0.0 mm 0.00 in0.0 mm
01:35 AM 52.7°F11.5°C 50.0°F10.0°C 91% Calm Calm -- 30.00 in1015.9 mb 0.00 in0.0 mm 0.00 in0.0 mm 0.00 in0.0 mm
01:40 AM 52.5°F11.4°C 50.0°F10.0°C 91% Calm Calm -- 30.00 in1015.9 mb 0.00 in0.0 mm 0.00 in0.0 mm 0.00 in0.0 mm
01:45 AM 52.5°F11.4°C 50.0°F10.0°C 92% Calm Calm -- 30.00 in1015.9 mb 0.00 in0.0 mm 0.00 in0.0 mm 0.00 in0.0 mm
01:50 AM 52.5°F11.4°C 50.0°F10.0°C 92% Calm Calm -- 30.00 in1015.9 mb 0.00 in0.0 mm 0.00 in0.0 mm 0.00 in0.0 mm
01:55 AM 52.2°F11.2°C 50.0°F10.0°C 91% Calm Calm -- 30.00 in1015.9 mb 0.00 in0.0 mm 0.00 in0.0 mm 0.00 in0.0 mm
02:00 AM 52.2°F11.2°C 50.0°F10.0°C 91% Calm Calm -- 30.00 in1015.9 mb 0.00 in0.0 mm 0.00 in0.0 mm 0.00 in0.0 mm
02:05 AM 52.0°F11.1°C 50.0°F10.0°C 91% Calm Calm -- 30.00 in1015.9 mb 0.00 in0.0 mm 0.00 in0.0 mm 0.00 in0.0 mm
02:10 AM 52.0°F11.1°C 50.0°F10.0°C 91% Calm Calm -- 30.00 in1015.9 mb 0.00 in0.0 mm 0.00 in0.0 mm 0.00 in0.0 mm
02:15 AM 51.8°F11.0°C 50.0°F10.0°C 91% Calm Calm -- 30.00 in1015.9 mb 0.00 in0.0 mm 0.00 in0.0 mm 0.00 in0.0 mm
02:20 AM 51.6°F10.9°C 50.0°F10.0°C 91% Calm Calm -- 30.00 in1015.9 mb 0.00 in0.0 mm 0.00 in0.0 mm 0.00 in0.0 mm
02:25 AM 51.4°F10.8°C 48.2°F9.0°C 91% Calm Calm -- 30.00 in1015.9 mb 0.00 in0.0 mm 0.00 in0.0 mm 0.00 in0.0 mm
02:30 AM 51.4°F10.8°C 48.2°F9.0°C 91% Calm Calm -- 30.00 in1015.9 mb 0.00 in0.0 mm 0.00 in0.0 mm 0.00 in0.0 mm
02:35 AM 51.3°F10.7°C 48.2°F9.0°C 91% Calm Calm -- 30.00 in1015.9 mb 0.00 in0.0 mm 0.00 in0.0 mm 0.00 in0.0 mm
02:40 AM 51.1°F10.6°C 48.2°F9.0°C 91% Calm Calm -- 30.00 in1015.9 mb 0.00 in0.0 mm 0.00 in0.0 mm 0.00 in0.0 mm
02:45 AM 51.1°F10.6°C 48.2°F9.0°C 91% Calm Calm -- 29.97 in1014.9 mb 0.00 in0.0 mm 0.00 in0.0 mm 0.00 in0.0 mm
02:50 AM 51.1°F10.6°C 48.2°F9.0°C 91% Calm Calm -- 29.97 in1014.9 mb 0.00 in0.0 mm 0.00 in0.0 mm 0.00 in0.0 mm
02:55 AM 50.9°F10.5°C 48.2°F9.0°C 91% Calm Calm -- 29.97 in1014.9 mb 0.00 in0.0 mm 0.00 in0.0 mm 0.00 in0.0 mm
03:00 AM 50.7°F10.4°C 48.2°F9.0°C 91% Calm Calm -- 29.97 in1014.9 mb 0.00 in0.0 mm 0.00 in0.0 mm 0.00 in0.0 mm
03:05 AM 50.9°F10.5°C 48.2°F9.0°C 91% Calm Calm -- 29.97 in1014.9 mb 0.00 in0.0 mm 0.00 in0.0 mm 0.00 in0.0 mm
03:10 AM 51.1°F10.6°C 48.2°F9.0°C 91% Calm Calm -- 29.97 in1014.9 mb 0.00 in0.0 mm 0.00 in0.0 mm 0.00 in0.0 mm
03:15 AM 51.3°F10.7°C 48.2°F9.0°C 92% Calm Calm -- 29.97 in1014.9 mb 0.00 in0.0 mm 0.00 in0.0 mm 0.00 in0.0 mm
03:20 AM 51.4°F10.8°C 48.2°F9.0°C 92% Calm Calm -- 29.97 in1014.9 mb 0.00 in0.0 mm 0.00 in0.0 mm 0.00 in0.0 mm
03:25 AM 51.4°F10.8°C 48.2°F9.0°C 92% Calm Calm -- 29.97 in1014.9 mb 0.00 in0.0 mm 0.00 in0.0 mm 0.00 in0.0 mm
03:30 AM 51.6°F10.9°C 50.0°F10.0°C 92% Calm Calm -- 30.00 in1015.9 mb 0.00 in0.0 mm 0.00 in0.0 mm 0.00 in0.0 mm
03:35 AM 51.8°F11.0°C 50.0°F10.0°C 92% Calm Calm -- 30.00 in1015.9 mb 0.00 in0.0 mm 0.00 in0.0 mm 0.00 in0.0 mm
03:40 AM 51.8°F11.0°C 50.0°F10.0°C 92% Calm Calm -- 30.00 in1015.9 mb 0.00 in0.0 mm 0.00 in0.0 mm 0.00 in0.0 mm
03:45 AM 52.0°F11.1°C 50.0°F10.0°C 92% Calm Calm 1.1 mph1.8 kmh 30.00 in1015.9 mb 0.00 in0.0 mm 0.00 in0.0 mm 0.00 in0.0 mm
03:50 AM 52.0°F11.1°C 50.0°F10.0°C 92% Calm Calm 1.1 mph1.8 kmh 30.00 in1015.9 mb 0.00 in0.0 mm 0.00 in0.0 mm 0.00 in0.0 mm
03:55 AM 52.2°F11.2°C 50.0°F10.0°C 93% Calm Calm -- 30.00 in1015.9 mb 0.00 in0.0 mm 0.00 in0.0 mm 0.00 in0.0 mm
04:00 AM 52.3°F11.3°C 50.0°F10.0°C 93% Calm Calm -- 30.00 in1015.9 mb 0.00 in0.0 mm 0.00 in0.0 mm 0.00 in0.0 mm
04:05 AM 52.3°F11.3°C 50.0°F10.0°C 93% Calm Calm -- 30.00 in1015.9 mb 0.00 in0.0 mm 0.00 in0.0 mm 0.00 in0.0 mm
04:10 AM 52.5°F11.4°C 50.0°F10.0°C 93% Calm Calm -- 30.00 in1015.9 mb 0.00 in0.0 mm 0.00 in0.0 mm 0.00 in0.0 mm
04:15 AM 52.5°F11.4°C 50.0°F10.0°C 93% Calm Calm -- 30.03 in1016.9 mb 0.00 in0.0 mm 0.00 in0.0 mm 0.00 in0.0 mm
04:20 AM 52.7°F11.5°C 51.8°F11.0°C 93% Calm Calm -- 30.03 in1016.9 mb 0.00 in0.0 mm 0.00 in0.0 mm 0.00 in0.0 mm
04:25 AM 52.7°F11.5°C 51.8°F11.0°C 93% Calm Calm -- 30.03 in1016.9 mb 0.00 in0.0 mm 0.00 in0.0 mm 0.00 in0.0 mm
04:30 AM 52.9°F11.6°C 51.8°F11.0°C 93% Calm Calm -- 30.00 in1015.9 mb 0.00 in0.0 mm 0.00 in0.0 mm 0.00 in0.0 mm
04:35 AM 52.9°F11.6°C 51.8°F11.0°C 93% Calm Calm -- 30.00 in1015.9 mb 0.00 in0.0 mm 0.00 in0.0 mm 0.00 in0.0 mm
04:40 AM 53.1°F11.7°C 51.8°F11.0°C 93% Calm Calm -- 30.00 in1015.9 mb 0.00 in0.0 mm 0.00 in0.0 mm 0.00 in0.0 mm
04:45 AM 53.2°F11.8°C 51.8°F11.0°C 93% Calm Calm -- 30.00 in1015.9 mb 0.00 in0.0 mm 0.00 in0.0 mm 0.00 in0.0 mm
04:50 AM 53.2°F11.8°C 51.8°F11.0°C 93% Calm Calm -- 30.00 in1015.9 mb 0.00 in0.0 mm 0.00 in0.0 mm 0.00 in0.0 mm
04:55 AM 53.4°F11.9°C 51.8°F11.0°C 93% Calm Calm -- 30.00 in1015.9 mb 0.00 in0.0 mm 0.00 in0.0 mm 0.00 in0.0 mm
05:00 AM 53.6°F12.0°C 51.8°F11.0°C 93% Calm Calm -- 30.00 in1015.9 mb 0.00 in0.0 mm 0.00 in0.0 mm 0.00 in0.0 mm
05:05 AM 53.6°F12.0°C 51.8°F11.0°C 93% Calm Calm -- 30.00 in1015.9 mb 0.00 in0.0 mm 0.00 in0.0 mm 0.00 in0.0 mm
05:10 AM 53.4°F11.9°C 51.8°F11.0°C 93% Calm Calm -- 30.00 in1015.9 mb 0.00 in0.0 mm 0.00 in0.0 mm 0.00 in0.0 mm
05:15 AM 53.4°F11.9°C 51.8°F11.0°C 93% Calm Calm -- 30.00 in1015.9 mb 0.00 in0.0 mm 0.00 in0.0 mm 0.00 in0.0 mm
05:20 AM 53.6°F12.0°C 51.8°F11.0°C 93% Calm Calm -- 30.00 in1015.9 mb 0.00 in0.0 mm 0.00 in0.0 mm 0.00 in0.0 mm
05:25 AM 53.6°F12.0°C 51.8°F11.0°C 93% Calm Calm -- 30.00 in1015.9 mb 0.00 in0.0 mm 0.00 in0.0 mm 0.00 in0.0 mm
05:30 AM 53.4°F11.9°C 51.8°F11.0°C 93% Calm Calm -- 30.00 in1015.9 mb 0.00 in0.0 mm 0.00 in0.0 mm 0.00 in0.0 mm
05:35 AM 53.4°F11.9°C 51.8°F11.0°C 93% Calm Calm -- 30.00 in1015.9 mb 0.00 in0.0 mm 0.00 in0.0 mm 0.00 in0.0 mm
05:40 AM 53.6°F12.0°C 51.8°F11.0°C 93% Calm Calm -- 30.00 in1015.9 mb 0.00 in0.0 mm 0.00 in0.0 mm 0.00 in0.0 mm
05:45 AM 53.8°F12.1°C 51.8°F11.0°C 93% Calm Calm -- 30.00 in1015.9 mb 0.00 in0.0 mm 0.00 in0.0 mm 0.00 in0.0 mm
05:50 AM 53.8°F12.1°C 51.8°F11.0°C 93% Calm Calm -- 30.00 in1015.9 mb 0.00 in0.0 mm 0.00 in0.0 mm 0.00 in0.0 mm
05:55 AM 53.8°F12.1°C 51.8°F11.0°C 93% Calm Calm -- 30.00 in1015.9 mb 0.00 in0.0 mm 0.00 in0.0 mm 0.00 in0.0 mm
06:00 AM 53.8°F12.1°C 51.8°F11.0°C 93% Calm Calm -- 30.03 in1016.9 mb 0.00 in0.0 mm 0.00 in0.0 mm 0.00 in0.0 mm
06:05 AM 54.0°F12.2°C 51.8°F11.0°C 93% Calm Calm -- 30.03 in1016.9 mb 0.00 in0.0 mm 0.00 in0.0 mm 0.00 in0.0 mm
06:10 AM 54.0°F12.2°C 51.8°F11.0°C 93% Calm Calm -- 30.03 in1016.9 mb 0.00 in0.0 mm 0.00 in0.0 mm 0.00 in0.0 mm
06:15 AM 54.0°F12.2°C 51.8°F11.0°C 93% Calm Calm -- 30.03 in1016.9 mb 0.00 in0.0 mm 0.00 in0.0 mm 0.00 in0.0 mm
06:20 AM 54.0°F12.2°C 51.8°F11.0°C 93% Calm Calm -- 30.03 in1016.9 mb 0.00 in0.0 mm 0.00 in0.0 mm 0.00 in0.0 mm
06:25 AM 54.0°F12.2°C 51.8°F11.0°C 93% Calm Calm -- 30.03 in1016.9 mb 0.00 in0.0 mm 0.00 in0.0 mm 0.00 in0.0 mm
06:30 AM 53.8°F12.1°C 51.8°F11.0°C 93% Calm Calm -- 30.03 in1016.9 mb 0.00 in0.0 mm 0.00 in0.0 mm 0.00 in0.0 mm
06:35 AM 53.8°F12.1°C 51.8°F11.0°C 93% Calm Calm -- 30.03 in1016.9 mb 0.00 in0.0 mm 0.00 in0.0 mm 0.00 in0.0 mm
06:40 AM 53.6°F12.0°C 51.8°F11.0°C 93% Calm Calm -- 30.03 in1016.9 mb 0.00 in0.0 mm 0.00 in0.0 mm 0.00 in0.0 mm
06:45 AM 53.4°F11.9°C 51.8°F11.0°C 93% Calm Calm -- 30.00 in1015.9 mb 0.00 in0.0 mm 0.00 in0.0 mm 0.00 in0.0 mm
06:50 AM 53.2°F11.8°C 51.8°F11.0°C 93% Calm Calm -- 30.00 in1015.9 mb 0.00 in0.0 mm 0.00 in0.0 mm 0.00 in0.0 mm
06:55 AM 53.1°F11.7°C 50.0°F10.0°C 92% Calm Calm -- 30.00 in1015.9 mb 0.00 in0.0 mm 0.00 in0.0 mm 0.00 in0.0 mm
07:00 AM 52.9°F11.6°C 50.0°F10.0°C 92% Calm Calm -- 30.03 in1016.9 mb 0.00 in0.0 mm 0.00 in0.0 mm 0.00 in0.0 mm
07:05 AM 52.9°F11.6°C 50.0°F10.0°C 92% Calm Calm -- 30.03 in1016.9 mb 0.00 in0.0 mm 0.00 in0.0 mm 0.00 in0.0 mm
07:10 AM 52.9°F11.6°C 51.8°F11.0°C 93% Calm Calm -- 30.03 in1016.9 mb 0.00 in0.0 mm 0.00 in0.0 mm 0.00 in0.0 mm
07:15 AM 53.1°F11.7°C 51.8°F11.0°C 93% Calm Calm -- 30.03 in1016.9 mb 0.00 in0.0 mm 0.00 in0.0 mm 0.00 in0.0 mm
07:20 AM 53.1°F11.7°C 51.8°F11.0°C 93% Calm Calm -- 30.03 in1016.9 mb 0.00 in0.0 mm 0.00 in0.0 mm 0.00 in0.0 mm
07:25 AM 53.1°F11.7°C 51.8°F11.0°C 93% Calm Calm -- 30.03 in1016.9 mb 0.00 in0.0 mm 0.00 in0.0 mm 0.00 in0.0 mm
07:30 AM 53.1°F11.7°C 51.8°F11.0°C 93% Calm Calm -- 30.03 in1016.9 mb 0.00 in0.0 mm 0.00 in0.0 mm 0.00 in0.0 mm
07:35 AM 53.1°F11.7°C 51.8°F11.0°C 93% Calm Calm -- 30.03 in1016.9 mb 0.00 in0.0 mm 0.00 in0.0 mm 0.00 in0.0 mm
07:40 AM 53.2°F11.8°C 51.8°F11.0°C 93% Calm Calm -- 30.03 in1016.9 mb 0.00 in0.0 mm 0.00 in0.0 mm 0.00 in0.0 mm
07:45 AM 53.2°F11.8°C 51.8°F11.0°C 93% Calm Calm -- 30.03 in1016.9 mb 0.00 in0.0 mm 0.00 in0.0 mm 0.00 in0.0 mm
07:50 AM 53.2°F11.8°C 51.8°F11.0°C 93% Calm Calm -- 30.03 in1016.9 mb 0.00 in0.0 mm 0.00 in0.0 mm 0.00 in0.0 mm
07:55 AM 53.4°F11.9°C 51.8°F11.0°C 93% Calm Calm -- 30.03 in1016.9 mb 0.00 in0.0 mm 0.00 in0.0 mm 0.00 in0.0 mm
08:00 AM 53.6°F12.0°C 51.8°F11.0°C 93% Calm Calm -- 30.03 in1016.9 mb 0.00 in0.0 mm 0.00 in0.0 mm 0.00 in0.0 mm
08:05 AM 53.6°F12.0°C 51.8°F11.0°C 93% Calm Calm -- 30.03 in1016.9 mb 0.00 in0.0 mm 0.00 in0.0 mm 0.00 in0.0 mm
08:10 AM 53.6°F12.0°C 51.8°F11.0°C 93% Calm Calm -- 30.03 in1016.9 mb 0.00 in0.0 mm 0.00 in0.0 mm 0.00 in0.0 mm
08:15 AM 53.6°F12.0°C 51.8°F11.0°C 93% Calm Calm -- 30.06 in1017.9 mb 0.00 in0.0 mm 0.00 in0.0 mm 0.00 in0.0 mm
08:20 AM 53.6°F12.0°C 51.8°F11.0°C 93% Calm Calm -- 30.06 in1017.9 mb 0.00 in0.0 mm 0.00 in0.0 mm 0.00 in0.0 mm
08:25 AM 53.6°F12.0°C 51.8°F11.0°C 93% Calm Calm -- 30.06 in1017.9 mb 0.00 in0.0 mm 0.00 in0.0 mm 0.00 in0.0 mm
08:30 AM 53.6°F12.0°C 51.8°F11.0°C 93% Calm Calm -- 30.06 in1017.9 mb 0.00 in0.0 mm 0.00 in0.0 mm 0.00 in0.0 mm
08:35 AM 53.6°F12.0°C 51.8°F11.0°C 93% Calm Calm -- 30.06 in1017.9 mb 0.00 in0.0 mm 0.00 in0.0 mm 0.00 in0.0 mm
08:40 AM 53.6°F12.0°C 51.8°F11.0°C 93% Calm Calm -- 30.06 in1017.9 mb 0.00 in0.0 mm 0.00 in0.0 mm 0.00 in0.0 mm
08:45 AM 53.6°F12.0°C 51.8°F11.0°C 93% Calm Calm -- 30.06 in1017.9 mb 0.00 in0.0 mm 0.00 in0.0 mm 0.00 in0.0 mm
08:50 AM 53.6°F12.0°C 51.8°F11.0°C 93% Calm Calm -- 30.06 in1017.9 mb 0.00 in0.0 mm 0.00 in0.0 mm 0.00 in0.0 mm
08:55 AM 54.0°F12.2°C 51.8°F11.0°C 93% Calm Calm -- 30.06 in1017.9 mb 0.00 in0.0 mm 0.00 in0.0 mm 0.00 in0.0 mm
09:00 AM 54.3°F12.4°C 53.6°F12.0°C 94% Calm Calm -- 30.06 in1017.9 mb 0.00 in0.0 mm 0.00 in0.0 mm 0.00 in0.0 mm
09:05 AM 54.5°F12.5°C 53.6°F12.0°C 94% Calm Calm -- 30.06 in1017.9 mb 0.00 in0.0 mm 0.00 in0.0 mm 0.00 in0.0 mm
09:10 AM 54.7°F12.6°C 53.6°F12.0°C 94% Calm Calm -- 30.06 in1017.9 mb 0.00 in0.0 mm 0.00 in0.0 mm 0.00 in0.0 mm
09:15 AM 54.7°F12.6°C 53.6°F12.0°C 94% Calm Calm 0.9 mph1.4 kmh 30.06 in1017.9 mb 0.00 in0.0 mm 0.00 in0.0 mm 0.00 in0.0 mm
09:20 AM 54.9°F12.7°C 53.6°F12.0°C 93% Calm Calm 0.9 mph1.4 kmh 30.06 in1017.9 mb 0.00 in0.0 mm 0.00 in0.0 mm 0.00 in0.0 mm
09:25 AM 55.0°F12.8°C 53.6°F12.0°C 93% Calm Calm 1.1 mph1.8 kmh 30.06 in1017.9 mb 0.00 in0.0 mm 0.00 in0.0 mm 0.00 in0.0 mm
09:30 AM 55.2°F12.9°C 53.6°F12.0°C 93% Calm Calm 1.1 mph1.8 kmh 30.06 in1017.9 mb 0.00 in0.0 mm 0.00 in0.0 mm 0.00 in0.0 mm
09:35 AM 55.2°F12.9°C 53.6°F12.0°C 93% Calm Calm 0.9 mph1.4 kmh 30.06 in1017.9 mb 0.00 in0.0 mm 0.00 in0.0 mm 0.00 in0.0 mm
09:40 AM 55.4°F13.0°C 53.6°F12.0°C 93% Calm Calm -- 30.06 in1017.9 mb 0.00 in0.0 mm 0.00 in0.0 mm 0.00 in0.0 mm
09:45 AM 55.4°F13.0°C 53.6°F12.0°C 93% Calm Calm 1.1 mph1.8 kmh 30.06 in1017.9 mb 0.00 in0.0 mm 0.00 in0.0 mm 0.00 in0.0 mm
09:50 AM 55.4°F13.0°C 53.6°F12.0°C 92% Calm Calm 1.1 mph1.8 kmh 30.06 in1017.9 mb 0.00 in0.0 mm 0.00 in0.0 mm 0.00 in0.0 mm
09:55 AM 55.4°F13.0°C 53.6°F12.0°C 92% Calm Calm 1.1 mph1.8 kmh 30.06 in1017.9 mb 0.00 in0.0 mm 0.00 in0.0 mm 0.00 in0.0 mm
10:00 AM 55.6°F13.1°C 53.6°F12.0°C 92% Calm Calm -- 30.06 in1017.9 mb 0.00 in0.0 mm 0.00 in0.0 mm 0.00 in0.0 mm
10:05 AM 55.6°F13.1°C 53.6°F12.0°C 91% Calm Calm 2.0 mph3.2 kmh 30.06 in1017.9 mb 0.00 in0.0 mm 0.00 in0.0 mm 0.00 in0.0 mm
10:10 AM 55.8°F13.2°C 53.6°F12.0°C 91% Calm Calm 2.0 mph3.2 kmh 30.06 in1017.9 mb 0.00 in0.0 mm 0.00 in0.0 mm 0.00 in0.0 mm
10:15 AM 55.9°F13.3°C 53.6°F12.0°C 91% Calm Calm 1.3 mph2.1 kmh 30.06 in1017.9 mb 0.00 in0.0 mm 0.00 in0.0 mm 0.00 in0.0 mm
10:20 AM 56.5°F13.6°C 55.4°F13.0°C 92% Calm Calm -- 30.06 in1017.9 mb 0.00 in0.0 mm 0.00 in0.0 mm 0.00 in0.0 mm
10:25 AM 56.7°F13.7°C 55.4°F13.0°C 91% Calm Calm -- 30.06 in1017.9 mb 0.00 in0.0 mm 0.00 in0.0 mm 0.00 in0.0 mm
10:30 AM 56.8°F13.8°C 53.6°F12.0°C 90% Calm Calm -- 30.06 in1017.9 mb 0.00 in0.0 mm 0.00 in0.0 mm 0.00 in0.0 mm
10:35 AM 57.2°F14.0°C 55.4°F13.0°C 90% Calm Calm -- 30.06 in1017.9 mb 0.00 in0.0 mm 0.00 in0.0 mm 0.00 in0.0 mm
10:40 AM 57.4°F14.1°C 55.4°F13.0°C 90% Calm Calm -- 30.06 in1017.9 mb 0.00 in0.0 mm 0.00 in0.0 mm 0.00 in0.0 mm
10:45 AM 57.4°F14.1°C 53.6°F12.0°C 88% 0.9 mph SSW1.4 kmh SSW 1.1 mph1.8 kmh 30.06 in1017.9 mb 0.00 in0.0 mm 0.00 in0.0 mm 0.00 in0.0 mm
10:50 AM 57.6°F14.2°C 53.6°F12.0°C 86% Calm Calm 1.3 mph2.1 kmh 30.06 in1017.9 mb 0.00 in0.0 mm 0.00 in0.0 mm 0.00 in0.0 mm
10:55 AM 57.7°F14.3°C 53.6°F12.0°C 86% Calm Calm 1.3 mph2.1 kmh 30.06 in1017.9 mb 0.00 in0.0 mm 0.00 in0.0 mm 0.00 in0.0 mm
11:00 AM 58.3°F14.6°C 55.4°F13.0°C 86% Calm Calm 1.3 mph2.1 kmh 30.09 in1019.0 mb 0.00 in0.0 mm 0.00 in0.0 mm 0.00 in0.0 mm
11:05 AM 58.5°F14.7°C 55.4°F13.0°C 85% Calm Calm 1.3 mph2.1 kmh 30.09 in1019.0 mb 0.00 in0.0 mm 0.00 in0.0 mm 0.00 in0.0 mm
11:10 AM 58.6°F14.8°C 53.6°F12.0°C 84% Calm Calm 1.3 mph2.1 kmh 30.09 in1019.0 mb 0.00 in0.0 mm 0.00 in0.0 mm 0.00 in0.0 mm
11:15 AM 59.0°F15.0°C 55.4°F13.0°C 84% Calm Calm 2.2 mph3.5 kmh 30.09 in1019.0 mb 0.00 in0.0 mm 0.00 in0.0 mm 0.00 in0.0 mm
11:20 AM 60.1°F15.6°C 55.4°F13.0°C 83% Calm Calm 2.2 mph3.5 kmh 30.09 in1019.0 mb 0.00 in0.0 mm 0.00 in0.0 mm 0.00 in0.0 mm
11:25 AM 60.4°F15.8°C 55.4°F13.0°C 82% Calm Calm 2.0 mph3.2 kmh 30.09 in1019.0 mb 0.00 in0.0 mm 0.00 in0.0 mm 0.00 in0.0 mm
11:30 AM 60.4°F15.8°C 55.4°F13.0°C 81% Calm Calm 2.9 mph4.7 kmh 30.09 in1019.0 mb 0.00 in0.0 mm 0.00 in0.0 mm 0.00 in0.0 mm
11:35 AM 60.3°F15.7°C 55.4°F13.0°C 80% Calm Calm 2.9 mph4.7 kmh 30.09 in1019.0 mb 0.00 in0.0 mm 0.00 in0.0 mm 0.00 in0.0 mm
11:40 AM 60.1°F15.6°C 53.6°F12.0°C 79% Calm Calm 1.1 mph1.8 kmh 30.09 in1019.0 mb 0.00 in0.0 mm 0.00 in0.0 mm 0.00 in0.0 mm
11:45 AM 60.3°F15.7°C 53.6°F12.0°C 79% 0.9 mph NE1.4 kmh NE 2.5 mph4.0 kmh 30.06 in1017.9 mb 0.00 in0.0 mm 0.00 in0.0 mm 0.00 in0.0 mm
11:50 AM 60.4°F15.8°C 53.6°F12.0°C 78% Calm Calm 2.5 mph4.0 kmh 30.06 in1017.9 mb 0.00 in0.0 mm 0.00 in0.0 mm 0.00 in0.0 mm
11:55 AM 60.1°F15.6°C 53.6°F12.0°C 75% 0.9 mph NW1.4 kmh NW 2.0 mph3.2 kmh 30.06 in1017.9 mb 0.00 in0.0 mm 0.00 in0.0 mm 0.00 in0.0 mm
12:00 PM 60.4°F15.8°C 53.6°F12.0°C 77% Calm Calm 2.2 mph3.5 kmh 30.06 in1017.9 mb 0.00 in0.0 mm 0.00 in0.0 mm 0.00 in0.0 mm
12:05 PM 60.8°F16.0°C 53.6°F12.0°C 76% Calm Calm 2.2 mph3.5 kmh 30.06 in1017.9 mb 0.00 in0.0 mm 0.00 in0.0 mm 0.00 in0.0 mm
12:10 PM 61.7°F16.5°C 55.4°F13.0°C 77% Calm Calm 2.0 mph3.2 kmh 30.06 in1017.9 mb 0.00 in0.0 mm 0.00 in0.0 mm 0.00 in0.0 mm
12:15 PM 62.1°F16.7°C 55.4°F13.0°C 75% 1.3 mph WSW2.1 kmh WSW 2.2 mph3.5 kmh 30.06 in1017.9 mb 0.00 in0.0 mm 0.00 in0.0 mm 0.00 in0.0 mm
12:20 PM 61.9°F16.6°C 53.6°F12.0°C 73% Calm Calm 2.2 mph3.5 kmh 30.06 in1017.9 mb 0.00 in0.0 mm 0.00 in0.0 mm 0.00 in0.0 mm
12:25 PM 62.1°F16.7°C 51.8°F11.0°C 70% Calm Calm 1.3 mph2.1 kmh 30.06 in1017.9 mb 0.00 in0.0 mm 0.00 in0.0 mm 0.00 in0.0 mm
12:30 PM 62.2°F16.8°C 53.6°F12.0°C 71% Calm Calm 1.6 mph2.6 kmh 30.06 in1017.9 mb 0.00 in0.0 mm 0.00 in0.0 mm 0.00 in0.0 mm
12:35 PM 62.8°F17.1°C 51.8°F11.0°C 67% Calm Calm 2.2 mph3.5 kmh 30.06 in1017.9 mb 0.00 in0.0 mm 0.00 in0.0 mm 0.00 in0.0 mm
12:40 PM 63.3°F17.4°C 51.8°F11.0°C 67% 1.1 mph WNW1.8 kmh WNW 3.1 mph5.0 kmh 30.06 in1017.9 mb 0.00 in0.0 mm 0.00 in0.0 mm 0.00 in0.0 mm
12:45 PM 63.3°F17.4°C 53.6°F12.0°C 68% 1.3 mph W2.1 kmh W 3.1 mph5.0 kmh 30.06 in1017.9 mb 0.00 in0.0 mm 0.00 in0.0 mm 0.00 in0.0 mm
12:50 PM 63.0°F17.2°C 53.6°F12.0°C 68% Calm Calm 2.7 mph4.3 kmh 30.06 in1017.9 mb 0.00 in0.0 mm 0.00 in0.0 mm 0.00 in0.0 mm
12:55 PM 63.0°F17.2°C 53.6°F12.0°C 69% Calm Calm 1.6 mph2.6 kmh 30.06 in1017.9 mb 0.00 in0.0 mm 0.00 in0.0 mm 0.00 in0.0 mm
01:00 PM 63.1°F17.3°C 53.6°F12.0°C 69% Calm Calm 1.6 mph2.6 kmh 30.06 in1017.9 mb 0.00 in0.0 mm 0.00 in0.0 mm 0.00 in0.0 mm
01:05 PM 63.3°F17.4°C 53.6°F12.0°C 69% 0.9 mph WSW1.4 kmh WSW 1.6 mph2.6 kmh 30.06 in1017.9 mb 0.00 in0.0 mm 0.00 in0.0 mm 0.00 in0.0 mm
01:10 PM 63.7°F17.6°C 53.6°F12.0°C 67% Calm Calm 2.5 mph4.0 kmh 30.06 in1017.9 mb 0.00 in0.0 mm 0.00 in0.0 mm 0.00 in0.0 mm
01:15 PM 64.0°F17.8°C 53.6°F12.0°C 67% Calm Calm 2.9 mph4.7 kmh 30.06 in1017.9 mb 0.00 in0.0 mm 0.00 in0.0 mm 0.00 in0.0 mm
01:20 PM 64.0°F17.8°C 51.8°F11.0°C 64% Calm Calm 3.1 mph5.0 kmh 30.06 in1017.9 mb 0.00 in0.0 mm 0.00 in0.0 mm 0.00 in0.0 mm
01:25 PM 64.4°F18.0°C 51.8°F11.0°C 64% 1.1 mph S1.8 kmh S 3.1 mph5.0 kmh 30.06 in1017.9 mb 0.00 in0.0 mm 0.00 in0.0 mm 0.00 in0.0 mm
01:30 PM 65.1°F18.4°C 51.8°F11.0°C 63% 0.9 mph SW1.4 kmh SW 3.4 mph5.5 kmh 30.06 in1017.9 mb 0.00 in0.0 mm 0.00 in0.0 mm 0.00 in0.0 mm
01:35 PM 65.3°F18.5°C 51.8°F11.0°C 60% Calm Calm 3.4 mph5.5 kmh 30.06 in1017.9 mb 0.00 in0.0 mm 0.00 in0.0 mm 0.00 in0.0 mm
01:40 PM 65.7°F18.7°C 51.8°F11.0°C 60% 0.9 mph WSW1.4 kmh WSW 2.9 mph4.7 kmh 30.06 in1017.9 mb 0.00 in0.0 mm 0.00 in0.0 mm 0.00 in0.0 mm
01:45 PM 66.0°F18.9°C 51.8°F11.0°C 59% Calm Calm 2.9 mph4.7 kmh 30.06 in1017.9 mb 0.00 in0.0 mm 0.00 in0.0 mm 0.00 in0.0 mm
01:50 PM 66.0°F18.9°C 51.8°F11.0°C 58% 1.1 mph NE1.8 kmh NE 2.9 mph4.7 kmh 30.06 in1017.9 mb 0.00 in0.0 mm 0.00 in0.0 mm 0.00 in0.0 mm
01:55 PM 66.4°F19.1°C 50.0°F10.0°C 56% 0.9 mph W1.4 kmh W 2.9 mph4.7 kmh 30.06 in1017.9 mb 0.00 in0.0 mm 0.00 in0.0 mm 0.00 in0.0 mm
02:00 PM 66.9°F19.4°C 51.8°F11.0°C 57% 0.9 mph WSW1.4 kmh WSW 3.1 mph5.0 kmh 30.06 in1017.9 mb 0.00 in0.0 mm 0.00 in0.0 mm 0.00 in0.0 mm
02:05 PM 67.5°F19.7°C 50.0°F10.0°C 54% 1.6 mph WSW2.6 kmh WSW 3.1 mph5.0 kmh 30.06 in1017.9 mb 0.00 in0.0 mm 0.00 in0.0 mm 0.00 in0.0 mm
02:10 PM 67.8°F19.9°C 51.8°F11.0°C 54% Calm Calm 2.7 mph4.3 kmh 30.06 in1017.9 mb 0.00 in0.0 mm 0.00 in0.0 mm 0.00 in0.0 mm
02:15 PM 67.3°F19.6°C 51.8°F11.0°C 56% Calm Calm 2.7 mph4.3 kmh 30.06 in1017.9 mb 0.00 in0.0 mm 0.00 in0.0 mm 0.00 in0.0 mm
02:20 PM 66.9°F19.4°C 50.0°F10.0°C 54% 3.4 mph WSW5.5 kmh WSW 5.6 mph9.0 kmh 30.06 in1017.9 mb 0.00 in0.0 mm 0.00 in0.0 mm 0.00 in0.0 mm
02:25 PM 66.7°F19.3°C 50.0°F10.0°C 55% 1.3 mph WSW2.1 kmh WSW 5.6 mph9.0 kmh 30.06 in1017.9 mb 0.00 in0.0 mm 0.00 in0.0 mm 0.00 in0.0 mm
02:30 PM 67.3°F19.6°C 50.0°F10.0°C 54% 2.9 mph WSW4.7 kmh WSW 5.4 mph8.7 kmh 30.06 in1017.9 mb 0.00 in0.0 mm 0.00 in0.0 mm 0.00 in0.0 mm
02:35 PM 67.5°F19.7°C 50.0°F10.0°C 54% Calm Calm 5.4 mph8.7 kmh 30.06 in1017.9 mb 0.00 in0.0 mm 0.00 in0.0 mm 0.00 in0.0 mm
02:40 PM 67.6°F19.8°C 50.0°F10.0°C 54% 1.3 mph WSW2.1 kmh WSW 3.8 mph6.1 kmh 30.06 in1017.9 mb 0.00 in0.0 mm 0.00 in0.0 mm 0.00 in0.0 mm
02:45 PM 67.6°F19.8°C 50.0°F10.0°C 53% 3.1 mph WSW5.0 kmh WSW 4.3 mph6.9 kmh 30.06 in1017.9 mb 0.00 in0.0 mm 0.00 in0.0 mm 0.00 in0.0 mm
02:50 PM 67.3°F19.6°C 50.0°F10.0°C 54% Calm Calm 5.6 mph9.0 kmh 30.06 in1017.9 mb 0.00 in0.0 mm 0.00 in0.0 mm 0.00 in0.0 mm
02:55 PM 67.1°F19.5°C 50.0°F10.0°C 53% 1.3 mph W2.1 kmh W 5.6 mph9.0 kmh 30.06 in1017.9 mb 0.00 in0.0 mm 0.00 in0.0 mm 0.00 in0.0 mm
03:00 PM 67.1°F19.5°C 50.0°F10.0°C 54% 3.6 mph WSW5.8 kmh WSW 4.0 mph6.4 kmh 30.03 in1016.9 mb 0.00 in0.0 mm 0.00 in0.0 mm 0.00 in0.0 mm
03:05 PM 66.7°F19.3°C 50.0°F10.0°C 54% 1.6 mph WSW2.6 kmh WSW 5.6 mph9.0 kmh 30.03 in1016.9 mb 0.00 in0.0 mm 0.00 in0.0 mm 0.00 in0.0 mm
03:10 PM 66.7°F19.3°C 50.0°F10.0°C 55% Calm Calm 5.6 mph9.0 kmh 30.03 in1016.9 mb 0.00 in0.0 mm 0.00 in0.0 mm 0.00 in0.0 mm
03:15 PM 66.7°F19.3°C 50.0°F10.0°C 55% 2.9 mph WSW4.7 kmh WSW 4.7 mph7.6 kmh 30.06 in1017.9 mb 0.00 in0.0 mm 0.00 in0.0 mm 0.00 in0.0 mm
03:20 PM 66.4°F19.1°C 50.0°F10.0°C 55% 3.8 mph WSW6.1 kmh WSW 4.9 mph7.9 kmh 30.06 in1017.9 mb 0.00 in0.0 mm 0.00 in0.0 mm 0.00 in0.0 mm
03:25 PM 65.8°F18.8°C 50.0°F10.0°C 56% 3.4 mph WSW5.5 kmh WSW 4.9 mph7.9 kmh 30.06 in1017.9 mb 0.00 in0.0 mm 0.00 in0.0 mm 0.00 in0.0 mm
03:30 PM 65.7°F18.7°C 50.0°F10.0°C 56% 2.9 mph WSW4.7 kmh WSW 4.5 mph7.2 kmh 30.06 in1017.9 mb 0.00 in0.0 mm 0.00 in0.0 mm 0.00 in0.0 mm
03:35 PM 65.1°F18.4°C 50.0°F10.0°C 57% 3.6 mph WSW5.8 kmh WSW 4.0 mph6.4 kmh 30.06 in1017.9 mb 0.00 in0.0 mm 0.00 in0.0 mm 0.00 in0.0 mm
03:40 PM 64.9°F18.3°C 50.0°F10.0°C 58% Calm Calm 4.0 mph6.4 kmh 30.06 in1017.9 mb 0.00 in0.0 mm 0.00 in0.0 mm 0.00 in0.0 mm
03:45 PM 64.8°F18.2°C 50.0°F10.0°C 58% 2.7 mph WSW4.3 kmh WSW 3.6 mph5.8 kmh 30.06 in1017.9 mb 0.00 in0.0 mm 0.00 in0.0 mm 0.00 in0.0 mm
03:50 PM 64.6°F18.1°C 50.0°F10.0°C 58% Calm Calm 4.0 mph6.4 kmh 30.06 in1017.9 mb 0.00 in0.0 mm 0.00 in0.0 mm 0.00 in0.0 mm
03:55 PM 64.6°F18.1°C 50.0°F10.0°C 59% 2.2 mph WSW3.5 kmh WSW 4.0 mph6.4 kmh 30.06 in1017.9 mb 0.00 in0.0 mm 0.00 in0.0 mm 0.00 in0.0 mm
04:00 PM 64.6°F18.1°C 50.0°F10.0°C 59% 0.9 mph WSW1.4 kmh WSW 1.6 mph2.6 kmh 30.03 in1016.9 mb 0.00 in0.0 mm 0.00 in0.0 mm 0.00 in0.0 mm
04:05 PM 64.8°F18.2°C 50.0°F10.0°C 59% 2.7 mph W4.3 kmh W 4.7 mph7.6 kmh 30.03 in1016.9 mb 0.00 in0.0 mm 0.00 in0.0 mm 0.00 in0.0 mm
04:10 PM 64.8°F18.2°C 51.8°F11.0°C 60% Calm Calm 4.7 mph7.6 kmh 30.03 in1016.9 mb 0.00 in0.0 mm 0.00 in0.0 mm 0.00 in0.0 mm
04:15 PM 64.9°F18.3°C 50.0°F10.0°C 59% 1.6 mph WSW2.6 kmh WSW 3.1 mph5.0 kmh 30.03 in1016.9 mb 0.00 in0.0 mm 0.00 in0.0 mm 0.00 in0.0 mm
04:20 PM 65.1°F18.4°C 50.0°F10.0°C 58% 2.9 mph WSW4.7 kmh WSW 5.8 mph9.3 kmh 30.03 in1016.9 mb 0.00 in0.0 mm 0.00 in0.0 mm 0.00 in0.0 mm
04:25 PM 65.3°F18.5°C 51.8°F11.0°C 59% Calm Calm 5.8 mph9.3 kmh 30.03 in1016.9 mb 0.00 in0.0 mm 0.00 in0.0 mm 0.00 in0.0 mm
04:30 PM 65.5°F18.6°C 51.8°F11.0°C 59% 1.1 mph WSW1.8 kmh WSW 2.5 mph4.0 kmh 30.06 in1017.9 mb 0.00 in0.0 mm 0.00 in0.0 mm 0.00 in0.0 mm
04:35 PM 65.3°F18.5°C 51.8°F11.0°C 59% Calm Calm 2.0 mph3.2 kmh 30.06 in1017.9 mb 0.00 in0.0 mm 0.00 in0.0 mm 0.00 in0.0 mm
04:40 PM 65.3°F18.5°C 51.8°F11.0°C 59% Calm Calm 2.0 mph3.2 kmh 30.06 in1017.9 mb 0.00 in0.0 mm 0.00 in0.0 mm 0.00 in0.0 mm
04:45 PM 65.1°F18.4°C 50.0°F10.0°C 59% 1.1 mph WSW1.8 kmh WSW 1.1 mph1.8 kmh 30.06 in1017.9 mb 0.00 in0.0 mm 0.00 in0.0 mm 0.00 in0.0 mm
04:50 PM 64.9°F18.3°C 50.0°F10.0°C 59% 0.9 mph WSW1.4 kmh WSW 2.7 mph4.3 kmh 30.06 in1017.9 mb 0.00 in0.0 mm 0.00 in0.0 mm 0.00 in0.0 mm
04:55 PM 64.8°F18.2°C 50.0°F10.0°C 58% Calm Calm 2.7 mph4.3 kmh 30.06 in1017.9 mb 0.00 in0.0 mm 0.00 in0.0 mm 0.00 in0.0 mm
05:00 PM 64.6°F18.1°C 50.0°F10.0°C 58% Calm Calm 2.7 mph4.3 kmh 30.03 in1016.9 mb 0.00 in0.0 mm 0.00 in0.0 mm 0.00 in0.0 mm
05:05 PM 64.2°F17.9°C 50.0°F10.0°C 59% Calm Calm -- 30.03 in1016.9 mb 0.00 in0.0 mm 0.00 in0.0 mm 0.00 in0.0 mm
05:10 PM 64.0°F17.8°C 50.0°F10.0°C 60% Calm Calm -- 30.03 in1016.9 mb 0.00 in0.0 mm 0.00 in0.0 mm 0.00 in0.0 mm
05:15 PM 63.7°F17.6°C 50.0°F10.0°C 61% Calm Calm -- 30.06 in1017.9 mb 0.00 in0.0 mm 0.00 in0.0 mm 0.00 in0.0 mm
05:20 PM 63.9°F17.7°C 50.0°F10.0°C 60% 1.3 mph 2.1 kmh -- 30.06 in1017.9 mb 0.00 in0.0 mm 0.00 in0.0 mm 0.00 in0.0 mm
05:25 PM 64.0°F17.8°C 50.0°F10.0°C 60% Calm Calm -- 30.06 in1017.9 mb 0.00 in0.0 mm 0.00 in0.0 mm 0.00 in0.0 mm
05:30 PM 63.9°F17.7°C 50.0°F10.0°C 60% Calm Calm -- 30.06 in1017.9 mb 0.00 in0.0 mm 0.00 in0.0 mm 0.00 in0.0 mm
05:35 PM 63.9°F17.7°C 50.0°F10.0°C 60% 0.9 mph 1.4 kmh -- 30.06 in1017.9 mb 0.00 in0.0 mm 0.00 in0.0 mm 0.00 in0.0 mm
05:40 PM 63.7°F17.6°C 50.0°F10.0°C 60% Calm Calm -- 30.06 in1017.9 mb 0.00 in0.0 mm 0.00 in0.0 mm 0.00 in0.0 mm
05:45 PM 63.3°F17.4°C 50.0°F10.0°C 61% Calm Calm -- 30.06 in1017.9 mb 0.00 in0.0 mm 0.00 in0.0 mm 0.00 in0.0 mm
05:50 PM 63.3°F17.4°C 50.0°F10.0°C 62% Calm Calm -- 30.06 in1017.9 mb 0.00 in0.0 mm 0.00 in0.0 mm 0.00 in0.0 mm
05:55 PM 63.0°F17.2°C 50.0°F10.0°C 62% Calm Calm -- 30.06 in1017.9 mb 0.00 in0.0 mm 0.00 in0.0 mm 0.00 in0.0 mm
06:00 PM 62.8°F17.1°C 50.0°F10.0°C 64% Calm Calm -- 30.06 in1017.9 mb 0.00 in0.0 mm 0.00 in0.0 mm 0.00 in0.0 mm
06:05 PM 62.6°F17.0°C 51.8°F11.0°C 65% Calm Calm -- 30.06 in1017.9 mb 0.00 in0.0 mm 0.00 in0.0 mm 0.00 in0.0 mm
06:10 PM 62.4°F16.9°C 51.8°F11.0°C 66% Calm Calm -- 30.06 in1017.9 mb 0.00 in0.0 mm 0.00 in0.0 mm 0.00 in0.0 mm
06:15 PM 62.2°F16.8°C 51.8°F11.0°C 67% Calm Calm -- 30.06 in1017.9 mb 0.00 in0.0 mm 0.00 in0.0 mm 0.00 in0.0 mm
06:20 PM 62.1°F16.7°C 51.8°F11.0°C 68% Calm Calm -- 30.09 in1019.0 mb 0.00 in0.0 mm 0.00 in0.0 mm 0.00 in0.0 mm
06:25 PM 61.9°F16.6°C 51.8°F11.0°C 69% Calm Calm -- 30.09 in1019.0 mb 0.00 in0.0 mm 0.00 in0.0 mm 0.00 in0.0 mm
06:30 PM 61.7°F16.5°C 51.8°F11.0°C 69% Calm Calm -- 30.09 in1019.0 mb 0.00 in0.0 mm 0.00 in0.0 mm 0.00 in0.0 mm
06:35 PM 61.5°F16.4°C 51.8°F11.0°C 70% Calm Calm -- 30.09 in1019.0 mb 0.00 in0.0 mm 0.00 in0.0 mm 0.00 in0.0 mm
06:40 PM 61.3°F16.3°C 51.8°F11.0°C 69% Calm Calm -- 30.09 in1019.0 mb 0.00 in0.0 mm 0.00 in0.0 mm 0.00 in0.0 mm
06:45 PM 61.2°F16.2°C 51.8°F11.0°C 69% Calm Calm -- 30.09 in1019.0 mb 0.00 in0.0 mm 0.00 in0.0 mm 0.00 in0.0 mm
06:50 PM 61.2°F16.2°C 51.8°F11.0°C 69% Calm Calm -- 30.09 in1019.0 mb 0.00 in0.0 mm 0.00 in0.0 mm 0.00 in0.0 mm
06:55 PM 61.0°F16.1°C 50.0°F10.0°C 69% Calm Calm -- 30.09 in1019.0 mb 0.00 in0.0 mm 0.00 in0.0 mm 0.00 in0.0 mm
07:00 PM 60.8°F16.0°C 51.8°F11.0°C 70% Calm Calm -- 30.09 in1019.0 mb 0.00 in0.0 mm 0.00 in0.0 mm 0.00 in0.0 mm
07:05 PM 60.6°F15.9°C 51.8°F11.0°C 71% Calm Calm -- 30.09 in1019.0 mb 0.00 in0.0 mm 0.00 in0.0 mm 0.00 in0.0 mm
07:10 PM 60.4°F15.8°C 51.8°F11.0°C 72% Calm Calm -- 30.09 in1019.0 mb 0.00 in0.0 mm 0.00 in0.0 mm 0.00 in0.0 mm
07:15 PM 60.4°F15.8°C 51.8°F11.0°C 72% Calm Calm -- 30.12 in1020.0 mb 0.00 in0.0 mm 0.00 in0.0 mm 0.00 in0.0 mm
07:20 PM 60.4°F15.8°C 51.8°F11.0°C 73% Calm Calm 1.1 mph1.8 kmh 30.12 in1020.0 mb 0.00 in0.0 mm 0.00 in0.0 mm 0.00 in0.0 mm
07:25 PM 60.4°F15.8°C 51.8°F11.0°C 74% Calm Calm 1.3 mph2.1 kmh 30.12 in1020.0 mb 0.00 in0.0 mm 0.00 in0.0 mm 0.00 in0.0 mm
07:30 PM 60.3°F15.7°C 51.8°F11.0°C 74% Calm Calm 1.3 mph2.1 kmh 30.09 in1019.0 mb 0.00 in0.0 mm 0.00 in0.0 mm 0.00 in0.0 mm
07:35 PM 60.1°F15.6°C 51.8°F11.0°C 74% Calm Calm -- 30.09 in1019.0 mb 0.00 in0.0 mm 0.00 in0.0 mm 0.00 in0.0 mm
07:40 PM 60.1°F15.6°C 51.8°F11.0°C 73% 2.7 mph WSW4.3 kmh WSW 3.6 mph5.8 kmh 30.09 in1019.0 mb 0.00 in0.0 mm 0.00 in0.0 mm 0.00 in0.0 mm
07:45 PM 59.9°F15.5°C 51.8°F11.0°C 74% 2.2 mph WSW3.5 kmh WSW 3.6 mph5.8 kmh 30.09 in1019.0 mb 0.00 in0.0 mm 0.00 in0.0 mm 0.00 in0.0 mm
07:50 PM 59.7°F15.4°C 51.8°F11.0°C 75% 2.0 mph WSW3.2 kmh WSW 3.1 mph5.0 kmh 30.09 in1019.0 mb 0.00 in0.0 mm 0.00 in0.0 mm 0.00 in0.0 mm
07:55 PM 59.4°F15.2°C 53.6°F12.0°C 77% 1.6 mph SW2.6 kmh SW 3.1 mph5.0 kmh 30.09 in1019.0 mb 0.00 in0.0 mm 0.00 in0.0 mm 0.00 in0.0 mm
08:00 PM 59.0°F15.0°C 51.8°F11.0°C 78% Calm Calm 3.1 mph5.0 kmh 30.12 in1020.0 mb 0.00 in0.0 mm 0.00 in0.0 mm 0.00 in0.0 mm
08:05 PM 58.3°F14.6°C 51.8°F11.0°C 78% Calm Calm 3.1 mph5.0 kmh 30.12 in1020.0 mb 0.00 in0.0 mm 0.00 in0.0 mm 0.00 in0.0 mm
08:10 PM 57.7°F14.3°C 51.8°F11.0°C 79% Calm Calm 3.1 mph5.0 kmh 30.12 in1020.0 mb 0.00 in0.0 mm 0.00 in0.0 mm 0.00 in0.0 mm
08:15 PM 57.2°F14.0°C 51.8°F11.0°C 79% Calm Calm 1.3 mph2.1 kmh 30.12 in1020.0 mb 0.00 in0.0 mm 0.00 in0.0 mm 0.00 in0.0 mm
08:20 PM 56.7°F13.7°C 50.0°F10.0°C 79% Calm Calm -- 30.12 in1020.0 mb 0.00 in0.0 mm 0.00 in0.0 mm 0.00 in0.0 mm
08:25 PM 56.3°F13.5°C 51.8°F11.0°C 80% 0.9 mph SW1.4 kmh SW 2.2 mph3.5 kmh 30.12 in1020.0 mb 0.04 in1.0 mm 0.48 in12.2 mm 0.04 in1.0 mm
08:30 PM 55.8°F13.2°C 50.0°F10.0°C 81% Calm Calm 2.2 mph3.5 kmh 30.09 in1019.0 mb 0.04 in1.0 mm 0.00 in0.0 mm 0.04 in1.0 mm
08:35 PM 55.6°F13.1°C 50.0°F10.0°C 82% Calm Calm -- 30.09 in1019.0 mb 0.09 in2.3 mm 0.60 in15.2 mm 0.09 in2.3 mm
08:40 PM 55.4°F13.0°C 50.0°F10.0°C 82% Calm Calm -- 30.09 in1019.0 mb 0.09 in2.3 mm 0.00 in0.0 mm 0.09 in2.3 mm
08:45 PM 55.4°F13.0°C 50.0°F10.0°C 83% 1.3 mph SW2.1 kmh SW 2.0 mph3.2 kmh 30.12 in1020.0 mb 0.09 in2.3 mm 0.00 in0.0 mm 0.09 in2.3 mm
08:50 PM 55.4°F13.0°C 51.8°F11.0°C 84% 0.9 mph SW1.4 kmh SW 2.9 mph4.7 kmh 30.12 in1020.0 mb 0.09 in2.3 mm 0.00 in0.0 mm 0.09 in2.3 mm
08:55 PM 55.4°F13.0°C 51.8°F11.0°C 84% Calm Calm 2.9 mph4.7 kmh 30.12 in1020.0 mb 0.09 in2.3 mm 0.00 in0.0 mm 0.09 in2.3 mm
09:00 PM 55.2°F12.9°C 51.8°F11.0°C 85% Calm Calm 1.6 mph2.6 kmh 30.12 in1020.0 mb 0.09 in2.3 mm 0.00 in0.0 mm 0.09 in2.3 mm
09:05 PM 55.2°F12.9°C 51.8°F11.0°C 85% Calm Calm -- 30.12 in1020.0 mb 0.12 in3.0 mm 0.36 in9.1 mm 0.12 in3.0 mm
09:10 PM 55.0°F12.8°C 51.8°F11.0°C 85% Calm Calm -- 30.12 in1020.0 mb 0.12 in3.0 mm 0.00 in0.0 mm 0.12 in3.0 mm
09:15 PM 55.0°F12.8°C 51.8°F11.0°C 85% Calm Calm 0.9 mph1.4 kmh 30.12 in1020.0 mb 0.12 in3.0 mm 0.00 in0.0 mm 0.12 in3.0 mm
09:20 PM 55.0°F12.8°C 51.8°F11.0°C 85% Calm Calm 0.9 mph1.4 kmh 30.12 in1020.0 mb 0.08 in2.0 mm 0.00 in0.0 mm 0.12 in3.0 mm
09:25 PM 55.0°F12.8°C 51.8°F11.0°C 85% Calm Calm 1.3 mph2.1 kmh 30.12 in1020.0 mb 0.08 in2.0 mm 0.00 in0.0 mm 0.12 in3.0 mm
09:30 PM 54.9°F12.7°C 51.8°F11.0°C 86% Calm Calm 1.3 mph2.1 kmh 30.09 in1019.0 mb 0.08 in2.0 mm 0.00 in0.0 mm 0.12 in3.0 mm
09:35 PM 54.9°F12.7°C 51.8°F11.0°C 86% Calm Calm -- 30.09 in1019.0 mb 0.03 in0.8 mm 0.00 in0.0 mm 0.12 in3.0 mm
09:40 PM 54.9°F12.7°C 51.8°F11.0°C 87% Calm Calm 0.9 mph1.4 kmh 30.09 in1019.0 mb 0.03 in0.8 mm 0.00 in0.0 mm 0.12 in3.0 mm
09:45 PM 54.9°F12.7°C 51.8°F11.0°C 87% Calm Calm 0.9 mph1.4 kmh 30.12 in1020.0 mb 0.03 in0.8 mm 0.00 in0.0 mm 0.12 in3.0 mm
09:50 PM 54.9°F12.7°C 51.8°F11.0°C 87% Calm Calm -- 30.12 in1020.0 mb 0.03 in0.8 mm 0.00 in0.0 mm 0.12 in3.0 mm
09:55 PM 54.9°F12.7°C 51.8°F11.0°C 88% Calm Calm -- 30.12 in1020.0 mb 0.08 in2.0 mm 0.60 in15.2 mm 0.17 in4.3 mm
10:00 PM 54.9°F12.7°C 51.8°F11.0°C 88% Calm Calm -- 30.09 in1019.0 mb 0.08 in2.0 mm 0.00 in0.0 mm 0.17 in4.3 mm
10:05 PM 54.7°F12.6°C 51.8°F11.0°C 88% Calm Calm -- 30.09 in1019.0 mb 0.05 in1.3 mm 0.00 in0.0 mm 0.17 in4.3 mm
10:10 PM 54.7°F12.6°C 51.8°F11.0°C 89% 1.3 mph ESE2.1 kmh ESE 1.6 mph2.6 kmh 30.09 in1019.0 mb 0.05 in1.3 mm 0.00 in0.0 mm 0.17 in4.3 mm
10:15 PM 54.5°F12.5°C 51.8°F11.0°C 89% Calm Calm 1.6 mph2.6 kmh 30.09 in1019.0 mb 0.09 in2.3 mm 0.48 in12.2 mm 0.21 in5.3 mm
10:20 PM 54.5°F12.5°C 51.8°F11.0°C 89% Calm Calm 1.6 mph2.6 kmh 30.09 in1019.0 mb 0.09 in2.3 mm 0.00 in0.0 mm 0.21 in5.3 mm
10:25 PM 54.5°F12.5°C 51.8°F11.0°C 89% Calm Calm -- 30.09 in1019.0 mb 0.09 in2.3 mm 0.00 in0.0 mm 0.21 in5.3 mm
10:30 PM 54.5°F12.5°C 51.8°F11.0°C 89% Calm Calm -- 30.12 in1020.0 mb 0.09 in2.3 mm 0.00 in0.0 mm 0.21 in5.3 mm
10:35 PM 54.5°F12.5°C 51.8°F11.0°C 89% Calm Calm -- 30.12 in1020.0 mb 0.09 in2.3 mm 0.00 in0.0 mm 0.21 in5.3 mm
10:40 PM 54.5°F12.5°C 51.8°F11.0°C 89% Calm Calm -- 30.12 in1020.0 mb 0.09 in2.3 mm 0.00 in0.0 mm 0.21 in5.3 mm
10:45 PM 54.5°F12.5°C 51.8°F11.0°C 89% Calm Calm -- 30.12 in1020.0 mb 0.09 in2.3 mm 0.00 in0.0 mm 0.21 in5.3 mm
10:50 PM 54.5°F12.5°C 51.8°F11.0°C 89% Calm Calm -- 30.12 in1020.0 mb 0.09 in2.3 mm 0.00 in0.0 mm 0.21 in5.3 mm
10:55 PM 54.5°F12.5°C 51.8°F11.0°C 89% Calm Calm -- 30.12 in1020.0 mb 0.04 in1.0 mm 0.00 in0.0 mm 0.21 in5.3 mm
11:00 PM 54.5°F12.5°C 51.8°F11.0°C 89% Calm Calm -- 30.12 in1020.0 mb 0.04 in1.0 mm 0.00 in0.0 mm 0.21 in5.3 mm
11:05 PM 54.7°F12.6°C 51.8°F11.0°C 90% Calm Calm -- 30.12 in1020.0 mb 0.04 in1.0 mm 0.00 in0.0 mm 0.21 in5.3 mm
11:10 PM 54.7°F12.6°C 51.8°F11.0°C 90% Calm Calm -- 30.12 in1020.0 mb 0.04 in1.0 mm 0.00 in0.0 mm 0.21 in5.3 mm
11:15 PM 54.7°F12.6°C 51.8°F11.0°C 90% 1.1 mph WNW1.8 kmh WNW 2.2 mph3.5 kmh 30.12 in1020.0 mb 0.00 in0.0 mm 0.00 in0.0 mm 0.21 in5.3 mm
11:20 PM 54.5°F12.5°C 51.8°F11.0°C 90% Calm Calm 2.2 mph3.5 kmh 30.12 in1020.0 mb 0.00 in0.0 mm 0.00 in0.0 mm 0.21 in5.3 mm
11:25 PM 54.5°F12.5°C 51.8°F11.0°C 90% Calm Calm -- 30.12 in1020.0 mb 0.00 in0.0 mm 0.00 in0.0 mm 0.21 in5.3 mm
11:30 PM 54.5°F12.5°C 51.8°F11.0°C 90% Calm Calm -- 30.12 in1020.0 mb 0.00 in0.0 mm 0.00 in0.0 mm 0.21 in5.3 mm
11:35 PM 54.5°F12.5°C 51.8°F11.0°C 90% Calm Calm -- 30.12 in1020.0 mb 0.00 in0.0 mm 0.00 in0.0 mm 0.21 in5.3 mm
11:40 PM 54.5°F12.5°C 51.8°F11.0°C 90% Calm Calm -- 30.12 in1020.0 mb 0.00 in0.0 mm 0.00 in0.0 mm 0.21 in5.3 mm
11:45 PM 54.3°F12.4°C 51.8°F11.0°C 90% Calm Calm -- 30.12 in1020.0 mb 0.00 in0.0 mm 0.00 in0.0 mm 0.21 in5.3 mm
11:50 PM 54.5°F12.5°C 51.8°F11.0°C 90% Calm Calm -- 30.12 in1020.0 mb 0.00 in0.0 mm 0.00 in0.0 mm 0.21 in5.3 mm
11:55 PM 54.3°F12.4°C 51.8°F11.0°C 90% Calm Calm -- 30.12 in1020.0 mb 0.00 in0.0 mm 0.00 in0.0 mm 0.21 in5.3 mm